Tuesday, January 23, 2018, 7:19 AM EST
Back to Local

KJHW, Jamestown, Chautauqua County/jamestown Airport

Location: Jamestown, NY, United States Lat: 42.15
Local Time: 7:19 AM EST (12:19 GMT) Lon: -79.267
Time Zone: US/Eastern Elev: 1722 ft

Show me the last for .
Show Decoded

2018-01-23 06:54 METAR KJHW 231154Z AUTO 17007KT 10SM BKN015 OVC065 05/05 A2957 RMK AO2 =
2018-01-23 06:43 METAR KJHW 231143Z AUTO 19007KT 4SM BR SCT015 OVC070 05/05 A2957 RMK AO2 =
2018-01-23 06:33 METAR KJHW 231133Z AUTO 18007KT 2 1/2SM BR OVC070 05/05 A2957 RMK AO2 VIS 3/4V5
                 =
2018-01-23 06:25 METAR KJHW 231125Z AUTO 17005KT 5SM BR FEW001 OVC075 05/05 A2956 RMK AO2 =
2018-01-23 06:17 METAR KJHW 231117Z AUTO 18005KT 2SM BR SCT001 OVC075 05/05 A2957 RMK AO2 =
2018-01-23 06:13 METAR KJHW 231113Z AUTO 16006KT 1SM BR SCT001 OVC075 05/05 A2956 RMK AO2 RVRNO =
2018-01-23 06:11 METAR KJHW 231111Z AUTO 16008KT 1/2SM FG SCT001 BKN070 OVC080 05/04 A2957 RMK
                 AO2 RVRNO =
2018-01-23 06:04 METAR KJHW 231104Z AUTO 17008KT 3/4SM BR SCT001 BKN070 BKN080 04/04 A2958 RMK
                 AO2 RVRNO =
2018-01-23 05:56 METAR KJHW 231056Z AUTO 16007KT 1SM BR BKN001 BKN070 BKN100 05/05 A2957 RMK AO2
                 RAE55 SLP022 P0002 T00500050 TSNO RVRNO =
2018-01-23 05:53 METAR KJHW 231053Z AUTO 16007KT 1/2SM -RA FG SCT001 BKN070 BKN090 05/04 A2956
                 RMK AO2 P0002 RVRNO =
2018-01-23 05:45 METAR KJHW 231045Z AUTO 17007KT 3/4SM -RA BR FEW001 SCT038 BKN070 04/04 A2957
                 RMK AO2 P0002 RVRNO =
2018-01-23 05:42 METAR KJHW 231042Z AUTO 18007KT 1 1/2SM -RA BR FEW001 SCT038 BKN070 04/04 A2957
                 RMK AO2 P0002 =
2018-01-23 05:27 METAR KJHW 231027Z AUTO 19005KT 6SM -RA BR FEW007 BKN038 OVC090 05/05 A2956 RMK
                 AO2 P0002 =
2018-01-23 05:25 METAR KJHW 231025Z AUTO 19005KT 2 1/2SM -RA BR BKN038 OVC090 05/05 A2957 RMK AO2
                 P0002 =
2018-01-23 05:17 METAR KJHW 231017Z AUTO 20005KT 1SM -RA BR FEW002 BKN040 OVC047 05/04 A2958 RMK
                 AO2 P0002 RVRNO =
2018-01-23 05:09 METAR KJHW 231009Z AUTO 16006KT 2 1/2SM -RA BR FEW002 BKN040 OVC050 05/05 A2957
                 RMK AO2 P0001 =
2018-01-23 05:04 METAR KJHW 231004Z AUTO 14007KT 1SM -RA BR FEW002 BKN040 OVC050 05/04 A2958 RMK
                 AO2 P0001 RVRNO =
2018-01-23 04:56 METAR KJHW 230956Z AUTO 18006KT 1/2SM -RA FG FEW004 BKN040 OVC047 04/04 A2960
                 RMK AO2 SLP033 P0009 T00440044 RVRNO =
2018-01-23 04:48 METAR KJHW 230948Z AUTO 18006KT 1/2SM -RA FG FEW002 BKN041 OVC050 04/04 A2959
                 RMK AO2 P0009 RVRNO =
2018-01-23 04:44 METAR KJHW 230944Z AUTO 17006KT 1SM -RA BR FEW002 BKN041 OVC050 05/04 A2960 RMK
                 AO2 P0009 RVRNO =
2018-01-23 04:41 METAR KJHW 230941Z AUTO 17005KT 1 1/2SM -RA BR SCT032 BKN041 OVC050 05/04 A2960
                 RMK AO2 P0009 =
2018-01-23 03:56 METAR KJHW 230856Z AUTO 27007KT 9SM -RA FEW011 BKN035 OVC046 06/04 A2959 RMK AO2
                 PK WND 29031/0823 WSHFT 0816 LTG DSNT NE-S TSB05E37 SLP029 P0022 60022 T00560044
                 55010 =
2018-01-23 03:43 METAR KJHW 230843Z AUTO 28010G20KT 8SM RA FEW011 SCT018 OVC037 06/04 A2959 RMK
                 AO2 PK WND 29031/0823 WSHFT 0816 LTG DSNT N-E TSB05E37 P0018 =
2018-01-23 03:36 METAR KJHW 230836Z AUTO 27016G21KT 6SM VCTS RA BR SCT011 SCT016 OVC037 06/04
                 A2961 RMK AO2 PK WND 29031/0823 WSHFT 0816 LTG DSNT N AND NE TSB05 P0015 =
2018-01-23 03:11 METAR KJHW 230811Z AUTO 18010G17KT 9SM VCTS OVC044 08/06 A2955 RMK AO2
                 TSB05RAE00 P0000 =
2018-01-23 02:43 METAR KJHW 230743Z AUTO 17009G16KT 10SM -RA BKN044 BKN055 OVC090 08/06 A2955 RMK
                 AO2 LTG DSNT SW-N TSB21E37RAB13 P0000 =
2018-01-23 02:27 METAR KJHW 230727Z AUTO 16011KT 10SM VCTS -RA BKN044 BKN060 OVC110 08/06 A2955
                 RMK AO2 LTG DSNT SE AND NW TSB21RAB13 P0000 =
2018-01-23 01:56 METAR KJHW 230656Z AUTO 15011KT 10SM SCT048 BKN080 08/06 A2956 RMK AO2
                 RAB0559E12 PRESFR SLP020 P0000 T00780056 =
2018-01-23 00:56 METAR KJHW 230556Z AUTO 15007KT 10SM BKN050 BKN060 OVC090 08/06 A2962 RMK AO2
                 RAB15E41 SLP040 P0001 60001 T00830061 10100 20083 58033 =
2018-01-22 23:56 METAR KJHW 230456Z AUTO 16009KT 10SM BKN043 BKN060 OVC080 09/07 A2966 RMK AO2
                 RAB0358E41 SLP052 P0000 T00890067 401060033 =
2018-01-22 22:56 METAR KJHW 230356Z AUTO 17007KT 10SM BKN050 OVC060 09/06 A2970 RMK AO2 RAE46
                 SLP067 P0000 T00890061 =
2018-01-22 21:56 METAR KJHW 230256Z AUTO 17010KT 10SM -RA OVC065 09/06 A2973 RMK AO2 RAE22B38
                 SLP076 P0000 60000 T00940061 58025 =
2018-01-22 20:56 METAR KJHW 230156Z AUTO 16009KT 10SM -RA OVC060 10/07 A2975 RMK AO2 RAB50 SLP086
                 P0000 T01000067 =
2018-01-22 19:56 METAR KJHW 230056Z AUTO 17007KT 10SM BKN055 OVC075 09/07 A2978 RMK AO2 SLP097
                 T00940072 =
2018-01-22 17:56 METAR KJHW 222256Z AUTO 18006KT 10SM FEW085 SCT120 10/08 A2982 RMK AO2 SLP111
                 T01000078 =
2018-01-22 16:56 METAR KJHW 222156Z AUTO 20005KT 10SM BKN070 BKN100 11/08 A2983 RMK AO2 SLP112
                 T01060078 =
2018-01-22 15:56 METAR KJHW 222056Z AUTO VRB03KT 10SM BKN080 OVC110 11/08 A2985 RMK AO2 SLP119
                 60000 T01060083 56022 =
2018-01-22 14:56 METAR KJHW 221956Z AUTO 18007KT 10SM BKN070 OVC090 11/09 A2985 RMK AO2 RAB21E34
                 SLP122 P0000 T01060089 =
2018-01-22 12:56 METAR KJHW 221756Z AUTO 18009KT 9SM SCT050 OVC075 08/08 A2991 RMK AO2 RAE12
                 SLP143 P0000 60003 T00830078 10083 20044 58026 =
2018-01-22 12:32 METAR KJHW 221732Z AUTO 18008KT 5SM BR SCT002 OVC050 08/08 A2993 RMK AO2 RAE12
                 P0000 =
2018-01-22 12:24 METAR KJHW 221724Z AUTO 19009KT 1 1/4SM BR BKN002 OVC050 08/08 A2994 RMK AO2 VIS
                 1/2V4 RAE12 P0000 =
2018-01-22 12:22 METAR KJHW 221722Z AUTO 18007KT 3/4SM BR OVC002 08/08 A2994 RMK AO2 RAE12 P0000
                 RVRNO =
2018-01-22 11:56 METAR KJHW 221656Z AUTO 18007KT 3/4SM -RA BR OVC002 07/07 A2996 RMK AO2 RAB44
                 SLP158 P0001 T00720072 RVRNO =
2018-01-22 11:52 METAR KJHW 221652Z AUTO 19007KT 3/4SM -RA BR OVC002 07/07 A2996 RMK AO2 RAB44
                 P0000 RVRNO =
2018-01-22 08:56 METAR KJHW 221356Z AUTO 18006KT M1/4SM -RA FG OVC002 05/05 A3000 RMK AO2
                 RAE07B53 SLP176 P0000 T00500050 RVRNO =
2018-01-22 07:56 METAR KJHW 221256Z AUTO 18006KT M1/4SM -RA FG OVC002 05/04 A3001 RMK AO2 RAB1157
                 SLP177 P0000 T00500044 RVRNO =

Support USWX by starting your Amazon purchase here.